Nearby METAR Reports

 

KTEB - Teterboro, New Jersey, USA
Distance from station: ENE 2mi, 4km
Updated: 07/29/2021 7:10pm
Heavy rain, Fog, Overcast
Heavy rain, Fog, Overcast
 Wind from SSW
Wind: SSW 12 mph , 19 km/h, Gust: 17 mph , 28 km/h
Temperature: 73°F , 23°C
Dew Point: 72°F , 22°C
Humidity: 94%
Barometer: 29.77 inHg , 1008.1 hPa
Summary: Heavy rain, Fog
Clouds: Overcast
Visibility: 1/2 mile , 0.8 km
Cloud details: Few Clouds 800 ft
Mostly cloudy 1100 ft
Overcast 2800 ft
2021/07/29 23:10 KTEB 292310Z 20010G15KT 1/2SM +RA FG FEW008 BKN011 OVC028 23/22 A2977 RMK AO2 TSB2253E08 P0045 T02280217 RVRNO
KNYC - Nyc/Central Park, New York, USA
Distance from station: SE 8mi, 13km
Updated: 07/29/2021 7:41pm
Light rain, Mist, Overcast
Light rain, Mist, Overcast
 Wind from SSW
Wind: SSW 10 mph , 17 km/h, Gust: 18 mph , 30 km/h
Temperature: 73°F , 23°C
Dew Point: 72°F , 22°C
Humidity: 94%
Barometer: 29.80 inHg , 1009.1 hPa
Summary: Light rain, Mist
Clouds: Overcast
Visibility: 1 1/4 miles , 2 km
Cloud details: Mostly cloudy 1200 ft
Mostly cloudy 3300 ft
Overcast 7000 ft
2021/07/29 23:41 KNYC 292341Z AUTO 20009G16KT 150V240 1 1/4SM -RA BR BKN012 BKN033 OVC070 23/22 A2980 RMK AO2 P0008 T02280217
 
KCDW - Caldwell, New Jersey, USA
Distance from station: WNW 10mi, 17km
Updated: 07/29/2021 7:28pm
Overcast
Overcast
 Wind from calm
Wind: Calm
Temperature: 72°F , 22°C
Dew Point: 66°F , 19°C
Humidity: 83%
Barometer: 29.79 inHg , 1008.8 hPa
Clouds: Overcast
Visibility: 10 miles , 16 km
Cloud details: Few Clouds 1600 ft
Mostly cloudy 4600 ft
Overcast 9000 ft
2021/07/29 23:28 KCDW 292328Z 00000KT 10SM FEW016 BKN046 OVC090 22/19 A2979 RMK AO2 LTG DSNT S RAE24 P0003 T02220194
KLGA - Nyc/La Guardia, New York, USA
Distance from station: ESE 12mi, 19km
Updated: 07/29/2021 7:09pm
Light rain, Overcast
Light rain, Overcast
 Wind from S
Wind: S 20 mph , 31 km/h, Gust: 29 mph , 46 km/h
Temperature: 75°F , 24°C
Dew Point: 72°F , 22°C
Humidity: 89%
Barometer: 29.76 inHg , 1007.8 hPa
Summary: Light rain
Clouds: Overcast
Visibility: 6 miles , 10 km
Cloud details: Partly cloudy 1000 ft
Mostly cloudy 4700 ft
Overcast 11000 ft
2021/07/29 23:09 KLGA 292309Z 18017G25KT 6SM -RA SCT010 BKN047 OVC110 24/22 A2976 RMK AO2 LTG DSNT SE TSE02 P0002 T02440217
 
KEWR - Newark, New Jersey, USA
Distance from station: SSW 12mi, 20km
Updated: 07/29/2021 7:26pm
Light rain, Mist, Mostly cloudy
Light rain, Mist, Mostly cloudy
 Wind from S
Wind: S 17 mph , 28 km/h, Gust: 23 mph , 37 km/h
Temperature: 75°F , 24°C
Dew Point: 72°F , 22°C
Humidity: 89%
Barometer: 29.77 inHg , 1008.1 hPa
Summary: Light rain, Mist
Clouds: Mostly cloudy
Visibility: 6 miles , 10 km
Cloud details: Partly cloudy 800 ft
Mostly cloudy 3500 ft
Mostly cloudy 6500 ft
Mostly cloudy 13000 ft
Mostly cloudy 25000 ft
2021/07/29 23:26 KEWR 292326Z 18015G20KT 6SM -RA BR SCT008 BKN035CB BKN065 BKN130 BKN250 24/22 A2977 RMK AO2 LTG DSNT S AND SW TSE26 CB OHD MOV E P0024 T02390222 $
KMMU - Morristown Muni, New Jersey, USA
Distance from station: WSW 18mi, 29km
Updated: 07/29/2021 6:45pm
Light rain, Mist, Overcast
Light rain, Mist, Overcast
 Wind from SSW
Wind: SSW 14 mph , 22 km/h, Gust: 23 mph , 37 km/h
Temperature: 73°F , 23°C
Dew Point: 73°F , 23°C
Humidity: 100%
Barometer: 29.81 inHg , 1009.5 hPa
Summary: Light rain, Mist
Clouds: Overcast
Visibility: 5 miles , 8 km
Cloud details: Partly cloudy 600 ft
Overcast 1000 ft
2021/07/29 22:45 KMMU 292245Z COR 21012G20KT 5SM -RA BR SCT006 OVC010 23/23 A2981
 
KJFK - Nyc/Jfk Arpt, New York, USA
Distance from station: SE 23mi, 36km
Updated: 07/29/2021 7:26pm
Light rain, Mist, Overcast
Light rain, Mist, Overcast
 Wind from S
Wind: S 24 mph , 39 km/h, Gust: 28 mph , 44 km/h
Temperature: 73°F , 23°C
Dew Point: 73°F , 23°C
Humidity: 100%
Barometer: 29.79 inHg , 1008.8 hPa
Summary: Light rain, Mist
Clouds: Overcast
Visibility: 4 miles , 6 km
Cloud details: Partly cloudy 800 ft
Mostly cloudy 5000 ft
Mostly cloudy 11000 ft
Overcast 13000 ft
2021/07/29 23:26 KJFK 292326Z 18021G24KT 4SM -RA BR SCT008 BKN050 BKN110 OVC130 23/23 A2979 RMK AO2 PK WND 17028/2300 LTG DSNT SE AND S P0007 T02330228
KHPN - White Plains, New York, USA
Distance from station: NE 25mi, 40km
Updated: 07/29/2021 6:56pm
Heavy rain, Mist, Overcast
Heavy rain, Mist, Overcast
 Wind from S
Wind: S 12 mph , 19 km/h, Gust: 20 mph , 31 km/h
Temperature: 72°F , 22°C
Dew Point: 70°F , 21°C
Humidity: 94%
Barometer: 29.78 inHg , 1008.5 hPa
Summary: Heavy rain, Mist
Clouds: Overcast
Visibility: 4 miles , 6 km
Cloud details: Mostly cloudy 600 ft
Overcast 1200 ft
2021/07/29 22:56 KHPN 292256Z 17010G17KT 4SM +RA BR BKN006 OVC012 22/21 A2978 RMK AO2 LTG DSNT SW RAE15B52 SLP079 T02220211 PNO $
 
KSMQ - Somerville, New Jersey, USA
Distance from station: WSW 34mi, 55km
Updated: 07/29/2021 6:53pm
Mist, Mostly cloudy
Mist, Mostly cloudy
 Wind from calm
Wind: Calm
Temperature: 73°F , 23°C
Dew Point: 70°F , 21°C
Humidity: 89%
Barometer: 29.77 inHg , 1008.1 hPa
Summary: Mist
Clouds: Mostly cloudy
Visibility: 6 miles , 10 km
Cloud details: Partly cloudy 4400 ft
Mostly cloudy 6500 ft
Mostly cloudy 9500 ft
2021/07/29 22:53 KSMQ 292253Z AUTO 00000KT 6SM BR SCT044 BKN065 BKN095 23/21 A2977 RMK AO2 LTG DSNT E-SW RAE35 SLP079 P0005 T02280211
K12N - Andover, New Jersey, USA
Distance from station: WNW 36mi, 57km
Updated: 07/29/2021 6:54pm

 Wind from calm
Wind: Calm
Temperature: 72°F , 22°C
Dew Point: 70°F , 21°C
Humidity: 94%
Barometer: 29.80 inHg , 1009.1 hPa
2021/07/29 22:54 K12N 292254Z AUTO 00000KT 22/21 A2980 RMK AO1 SLP085 P0021 T02170206
 
KFRG - Farmingdale, New York, USA
Distance from station: ESE 36mi, 58km
Updated: 07/29/2021 7:01pm
Light rain, Mist, Overcast
Light rain, Mist, Overcast
 Wind from S
Wind: S 17 mph , 28 km/h, Gust: 29 mph , 46 km/h
Temperature: 73°F , 23°C
Dew Point: 70°F , 21°C
Humidity: 89%
Barometer: 29.77 inHg , 1008.1 hPa
Summary: Light rain, Mist
Clouds: Overcast
Visibility: 5 miles , 8 km
Cloud details: Mostly cloudy 800 ft
Overcast 2000 ft
2021/07/29 23:01 KFRG 292301Z 19015G25KT 5SM -RA BR BKN008 OVC020 23/21 A2977 RMK AO2 LTG DSNT SW P0001 T02330211
KFWN - Sussex, New Jersey, USA
Distance from station: NW 37mi, 60km
Updated: 07/29/2021 7:00pm
Mostly cloudy
Mostly cloudy
 Wind from varies
Wind: varies 3 mph , 6 km/h
Temperature: 72°F , 22°C
Dew Point: 70°F , 21°C
Humidity: 94%
Barometer: 29.78 inHg , 1008.5 hPa
Clouds: Mostly cloudy
Visibility: 9 miles , 14 km
Cloud details: Partly cloudy 1300 ft
Partly cloudy 2200 ft
Mostly cloudy 3800 ft
2021/07/29 23:00 KFWN 292300Z AUTO VRB03KT 9SM SCT013 SCT022 BKN038 22/21 A2978 RMK AO2 T02170206
 
KSWF - Newburgh/Stewart, New York, USA
Distance from station: 0 45mi, 72km
Updated: 07/29/2021 7:45pm
Light rain, Mist, Mostly cloudy
Light rain, Mist, Mostly cloudy
 Wind from SW
Wind: SW 9 mph , 15 km/h
Temperature: 72°F , 22°C
Dew Point: 72°F , 22°C
Humidity: 100%
Barometer: 29.76 inHg , 1007.8 hPa
Summary: Light rain, Mist
Clouds: Mostly cloudy
Visibility: 4 miles , 6 km
Cloud details: Mostly cloudy 2000 ft
Mostly cloudy 5000 ft
2021/07/29 23:45 KSWF 292345Z 23008KT 4SM -RA BR BKN020 BKN050 22/22 A2976
KMGJ - Montgomery, New York, USA
Distance from station: NNW 47mi, 75km
Updated: 07/29/2021 6:54pm
Light rain, Overcast
Light rain, Overcast
 Wind from SSW
Wind: SSW 6 mph , 9 km/h
Temperature: 70°F , 21°C
Dew Point: 70°F , 21°C
Humidity: 100%
Barometer: 29.76 inHg , 1007.8 hPa
Summary: Light rain
Clouds: Overcast
Visibility: 8 miles , 13 km
Cloud details: Overcast 6000 ft
2021/07/29 22:54 KMGJ 292254Z AUTO 20005KT 8SM -RA OVC060 21/21 A2976 RMK AO2 RAB43 SLP077 P0000 T02110206
 
KBLM - Belmar/Farmdale, New Jersey, USA
Distance from station: S 47mi, 76km
Updated: 07/29/2021 7:28pm
Nearby thunderstorm, Light rain, Mist, Overcast
Nearby thunderstorm, Light rain, Mist, Overcast
 Wind from SSW
Wind: SSW 5 mph , 7 km/h
Temperature: 75°F , 24°C
Dew Point: 73°F , 23°C
Humidity: 94%
Barometer: 29.81 inHg , 1009.5 hPa
Summary: Nearby thunderstorm, Light rain, Mist
Clouds: Overcast
Visibility: 6 miles , 10 km
Cloud details: Overcast 900 ft
2021/07/29 23:28 KBLM 292328Z AUTO 21004KT 6SM VCTS -RA BR OVC009 24/23 A2981 RMK AO2 LTG DSNT E AND W AND NW TSE14B22 CIG 008V013 PNO $
KDXR - Danbury, Connecticut, USA
Distance from station: NE 47mi, 76km
Updated: 07/29/2021 7:38pm
Rain, Mist, Overcast
Rain, Mist, Overcast
 Wind from S
Wind: S 6 mph , 9 km/h
Temperature: 73°F , 23°C
Dew Point: 70°F , 21°C
Humidity: 89%
Barometer: 29.78 inHg , 1008.5 hPa
Summary: Rain, Mist
Clouds: Overcast
Visibility: 2 miles , 3 km
Cloud details: Mostly cloudy 1100 ft
Mostly cloudy 1900 ft
Overcast 2800 ft
2021/07/29 23:38 KDXR 292338Z 19005KT 2SM RA BR BKN011 BKN019 OVC028 23/21 A2978 RMK AO2 RAB17 P0004 T02280206
 
KISP - Islip, New York, USA
Distance from station: E 52mi, 83km
Updated: 07/29/2021 7:18pm
Light rain, Mist, Overcast
Light rain, Mist, Overcast
 Wind from S
Wind: S 16 mph , 26 km/h, Gust: 22 mph , 35 km/h
Temperature: 73°F , 23°C
Dew Point: 72°F , 22°C
Humidity: 94%
Barometer: 29.79 inHg , 1008.8 hPa
Summary: Light rain, Mist
Clouds: Overcast
Visibility: 6 miles , 10 km
Cloud details: Mostly cloudy 900 ft
Mostly cloudy 1700 ft
Overcast 2200 ft
2021/07/29 23:18 KISP 292318Z 17014G19KT 6SM -RA BR BKN009 BKN017 OVC022 23/22 A2979 RMK AO2 P0000 T02280217
KBDR - Bridgeport, Connecticut, USA
Distance from station: ENE 54mi, 87km
Updated: 07/29/2021 7:27pm
Overcast
Overcast
 Wind from S
Wind: S 17 mph , 28 km/h, Gust: 26 mph , 43 km/h
Temperature: 73°F , 23°C
Dew Point: 70°F , 21°C
Humidity: 89%
Barometer: 29.76 inHg , 1007.8 hPa
Clouds: Overcast
Visibility: 10 miles , 16 km
Cloud details: Partly cloudy 1600 ft
Mostly cloudy 2700 ft
Overcast 9000 ft
2021/07/29 23:27 KBDR 292327Z 17015G23KT 10SM SCT016 BKN027 OVC090 23/21 A2976 RMK AO2 RAE00 P0000 T02330206
 
KTTN - Trenton, New Jersey, USA
Distance from station: SW 55mi, 88km
Updated: 07/29/2021 7:24pm
Nearby thunderstorm, Light rain, Overcast
Nearby thunderstorm, Light rain, Overcast
 Wind from N
Wind: N 9 mph , 15 km/h
Temperature: 72°F , 22°C
Dew Point: 72°F , 22°C
Humidity: 100%
Barometer: 29.78 inHg , 1008.5 hPa
Summary: Nearby thunderstorm, Light rain
Clouds: Overcast
Visibility: 9 miles , 14 km
Cloud details: Partly cloudy 900 ft
Mostly cloudy 1700 ft
Overcast 5500 ft
2021/07/29 23:24 KTTN 292324Z 36008KT 9SM VCTS -RA SCT009 BKN017 OVC055 22/22 A2978 RMK AO2 LTG DSNT ALQDS TSE02B03E20 TS N MOV SE P0046 T02170217
KPOU - Poughkeepsie, New York, USA
Distance from station: N 55mi, 89km
Updated: 07/29/2021 7:33pm
Overcast
Overcast
 Wind from S
Wind: S 6 mph , 9 km/h
Temperature: 73°F , 23°C
Dew Point: 70°F , 21°C
Humidity: 89%
Barometer: 29.75 inHg , 1007.5 hPa
Clouds: Overcast
Visibility: 8 miles , 13 km
Cloud details: Few Clouds 1500 ft
Partly cloudy 5000 ft
Overcast 6500 ft
2021/07/29 23:33 KPOU 292333Z 19005KT 8SM FEW015 SCT050 OVC065 23/21 A2975 RMK AO2 T02280206
 
KNEL - Lakehurst Nas, New Jersey, USA
Distance from station: SSW 59mi, 95km
Updated: 07/29/2021 7:00pm
Light thunderstorm, Rain, Overcast
Light thunderstorm, Rain, Overcast
 Wind from SSE
Wind: SSE 14 mph , 22 km/h
Temperature: 75°F , 24°C
Dew Point: 73°F , 23°C
Humidity: 94%
Barometer: 29.76 inHg , 1007.8 hPa
Summary: Light thunderstorm, Rain
Clouds: Overcast
Visibility: 7 miles , 11 km
Cloud details: Overcast 1100 ft
2021/07/29 23:00 KNEL 292300Z 16012KT 7SM -TSRA OVC011 24/23 A2976 RMK AO2 RAB2212 TSB2243 SLP074 P0001 T02440228
KWRI - Wrightst/Mcguire, New Jersey, USA
Distance from station: SSW 63mi, 102km
Updated: 07/29/2021 7:27pm
Light thunderstorm, Rain, Overcast
Light thunderstorm, Rain, Overcast
 Wind from S
Wind: S 10 mph , 17 km/h
Temperature: 75°F , 24°C
Dew Point: 73°F , 23°C
Humidity: 94%
Barometer: 29.73 inHg , 1006.8 hPa
Summary: Light thunderstorm, Rain
Clouds: Overcast
Visibility: 6 miles , 10 km
Cloud details: Few Clouds 800 ft
Partly cloudy 1800 ft
Overcast 7500 ft
2021/07/29 23:27 KWRI 292327Z 18009KT 6SM -TSRA FEW008 SCT018CB OVC075 24/23 A2973 RMK AO2A TSB10 PRESFR SLP066 57033
 
KHWV - Shirley, New York, USA
Distance from station: E 64mi, 103km
Updated: 07/29/2021 6:56pm
Light rain, Overcast
Light rain, Overcast
 Wind from SSE
Wind: SSE 15 mph , 24 km/h, Gust: 23 mph , 37 km/h
Temperature: 73°F , 23°C
Dew Point: 68°F , 20°C
Humidity: 83%
Barometer: 29.82 inHg , 1009.8 hPa
Summary: Light rain
Clouds: Overcast
Visibility: 7 miles , 11 km
Cloud details: Overcast 2000 ft
2021/07/29 22:56 KHWV 292256Z AUTO 15013G20KT 7SM -RA OVC020 23/20 A2982 RMK AO2 SLP095 P0003 T02280200
KMJX - Toms River, New Jersey, USA
Distance from station: S 64mi, 104km
Updated: 07/26/2021 11:56pm
NOT Current
Clear
Clear
 Wind from calm
Wind: Calm
Temperature: 70°F , 21°C
Dew Point: 66°F , 19°C
Humidity: 88%
Barometer: 29.95 inHg , 1014.2 hPa
Clouds: Clear
Visibility: 7 miles , 11 km
2021/07/27 03:56 KMJX 270356Z AUTO 00000KT 7SM CLR 21/19 A2995 RMK AO2 SLP143 T02060194 TSNO
 
KDYL - Doylestown, Pennsylvania, USA
Distance from station: SW 65mi, 104km
Updated: 07/29/2021 7:12pm
Overcast
Overcast
 Wind from calm
Wind: Calm
Temperature: 73°F , 23°C
Dew Point: 68°F , 20°C
Humidity: 83%
Barometer: 29.78 inHg , 1008.5 hPa
Clouds: Overcast
Visibility: 10 miles , 16 km
Cloud details: Partly cloudy 1700 ft
Mostly cloudy 2100 ft
Overcast 6000 ft
2021/07/29 23:12 KDYL 292312Z AUTO 00000KT 10SM SCT017 BKN021 OVC060 23/20 A2978 RMK AO2 LTG DSNT E-S RAE2256 P0000 T02280200
KOXC - Oxford/Waterbury, Connecticut, USA
Distance from station: NE 65mi, 105km
Updated: 07/29/2021 6:51pm
Light rain, Overcast
Light rain, Overcast
 Wind from S
Wind: S 14 mph , 22 km/h, Gust: 22 mph , 35 km/h
Temperature: 70°F , 21°C
Dew Point: 70°F , 21°C
Humidity: 100%
Barometer: 29.82 inHg , 1009.8 hPa
Summary: Light rain
Clouds: Overcast
Visibility: 7 miles , 11 km
Cloud details: Overcast 700 ft
2021/07/29 22:51 KOXC 292251Z 18012G19KT 7SM -RA OVC007 21/21 A2982 RMK AO2 SLP103 P0000 T02060206
 
KMSV - Monticello, New York, USA
Distance from station: NNW 69mi, 111km
Updated: 07/29/2021 6:56pm
Overcast
Overcast
 Wind from S
Wind: S 7 mph , 11 km/h
Temperature: 68°F , 20°C
Dew Point: 66°F , 19°C
Humidity: 94%
Barometer: 29.80 inHg , 1009.1 hPa
Clouds: Overcast
Visibility: 10 miles , 16 km
Cloud details: Overcast 800 ft
2021/07/29 22:56 KMSV 292256Z AUTO 19006KT 10SM OVC008 20/19 A2980 RMK AO2 CIG 006V012 SLP088 T02000194
KHVN - New Haven/Tweed, Connecticut, USA
Distance from station: ENE 70mi, 112km
Updated: 07/29/2021 6:53pm
Light rain, Mist, Overcast
Light rain, Mist, Overcast
 Wind from S
Wind: S 18 mph , 30 km/h, Gust: 25 mph , 41 km/h
Temperature: 73°F , 23°C
Dew Point: 70°F , 21°C
Humidity: 89%
Barometer: 29.80 inHg , 1009.1 hPa
Summary: Light rain, Mist
Clouds: Overcast
Visibility: 4 miles , 6 km
Cloud details: Few Clouds 1500 ft
Partly cloudy 8500 ft
Overcast 11000 ft
2021/07/29 22:53 KHVN 292253Z 17016G22KT 4SM -RA BR FEW015 SCT085 OVC110 23/21 A2980 RMK AO2 PK WND 16027/2211 SLP091 P0008 T02330211
 
KMPO - Mt. Pocono, Pennsylvania, USA
Distance from station: WNW 70mi, 113km
Updated: 07/29/2021 6:53pm
Mostly cloudy
Mostly cloudy
 Wind from SW
Wind: SW 6 mph , 9 km/h
Temperature: 68°F , 20°C
Dew Point: 66°F , 19°C
Humidity: 94%
Barometer: 29.83 inHg , 1010.2 hPa
Clouds: Mostly cloudy
Visibility: 10 miles , 16 km
Cloud details: Few Clouds 3900 ft
Mostly cloudy 4900 ft
2021/07/29 22:53 KMPO 292253Z AUTO 22005KT 10SM FEW039 BKN049 20/19 A2983 RMK AO2 SLP094 T02000189
KPNE - Philadelphia/Ne, Pennsylvania, USA
Distance from station: SW 72mi, 116km
Updated: 07/29/2021 7:30pm
Thunderstorm, Overcast
Thunderstorm, Overcast
 Wind from WNW
Wind: WNW 10 mph , 17 km/h, Gust: 22 mph , 35 km/h
Temperature: 77°F , 25°C
Dew Point: 73°F , 23°C
Humidity: 89%
Barometer: 29.78 inHg , 1008.5 hPa
Summary: Thunderstorm
Clouds: Overcast
Visibility: 9 miles , 14 km
Cloud details: Partly cloudy 1400 ft
Mostly cloudy 2100 ft
Overcast 7000 ft
2021/07/29 23:30 KPNE 292330Z 29009G19KT 9SM TS SCT014 BKN021 OVC070 25/23 A2978 RMK AO2 PK WND 01032/2311 WSHFT 2310 LTG DSNT NE-SE RAB01E23 PRESRR P0024 T02500233
 
KABE - Allentown, Pennsylvania, USA
Distance from station: W 73mi, 117km
Updated: 07/29/2021 6:51pm
Mostly cloudy
Mostly cloudy
 Wind from calm
Wind: Calm
Temperature: 75°F , 24°C
Dew Point: 70°F , 21°C
Humidity: 83%
Barometer: 29.78 inHg , 1008.5 hPa
Clouds: Mostly cloudy
Visibility: 10 miles , 16 km
Cloud details: Mostly cloudy 5500 ft
2021/07/29 22:51 KABE 292251Z 00000KT 10SM BKN055 24/21 A2978 RMK AO2 LTG DSNT E AND SE SLP082 T02390206
KUKT - Quakertown Arp, Pennsylvania, USA
Distance from station: WSW 74mi, 119km
Updated: 07/29/2021 7:35pm
Mostly cloudy
Mostly cloudy
 Wind from calm
Wind: Calm
Temperature: 75°F , 24°C
Dew Point: 75°F , 24°C
Humidity: 100%
Barometer: 29.79 inHg , 1008.8 hPa
Clouds: Mostly cloudy
Visibility: 7 miles , 11 km
Cloud details: Few Clouds 1500 ft
Partly cloudy 2300 ft
Mostly cloudy 3000 ft
2021/07/29 23:35 KUKT 292335Z AUTO 00000KT 7SM FEW015 SCT023 BKN030 24/24 A2979 RMK A01
 
KVAY - Mount Holly, New Jersey, USA
Distance from station: SSW 75mi, 120km
Updated: 07/29/2021 7:27pm
Light thunderstorm, Rain, Overcast
Light thunderstorm, Rain, Overcast
 Wind from S
Wind: S 10 mph , 17 km/h, Gust: 21 mph , 33 km/h
Temperature: 79°F , 26°C
Dew Point: 73°F , 23°C
Humidity: 84%
Barometer: 29.71 inHg , 1006.1 hPa
Summary: Light thunderstorm, Rain
Clouds: Overcast
Visibility: 9 miles , 14 km
Cloud details: Few Clouds 1600 ft
Mostly cloudy 8500 ft
Overcast 11000 ft
2021/07/29 23:27 KVAY 292327Z AUTO 17009G18KT 9SM -TSRA FEW016 BKN085 OVC110 26/23 A2971 RMK AO2 LTG DSNT N AND NE RAB25 TSB21 PRESFR P0000 T02560233
KXLL - Allentown Queen, Pennsylvania, USA
Distance from station: WSW 76mi, 122km
Updated: 07/29/2021 7:35pm
Overcast
Overcast
 Wind from SW
Wind: SW 8 mph , 13 km/h
Temperature: 75°F , 24°C
Dew Point: 72°F , 22°C
Humidity: 89%
Barometer: 29.79 inHg , 1008.8 hPa
Clouds: Overcast
Visibility: 7 miles , 11 km
Cloud details: Overcast 5000 ft
2021/07/29 23:35 KXLL 292335Z AUTO 22007KT 7SM OVC050 24/22 A2979 RMK AO2 LTG DSNT N THRU SE
 
KFOK - Westhampton Beac, New York, USA
Distance from station: E 77mi, 124km
Updated: 07/29/2021 7:36pm
Overcast
Overcast
 Wind from S
Wind: S 13 mph , 20 km/h, Gust: 21 mph , 33 km/h
Temperature: 72°F , 22°C
Dew Point: 70°F , 21°C
Humidity: 94%
Barometer: 29.81 inHg , 1009.5 hPa
Clouds: Overcast
Visibility: 10 miles , 16 km
Cloud details: Partly cloudy 2400 ft
Overcast 3400 ft
2021/07/29 23:36 KFOK 292336Z 17011G18KT 10SM SCT024 OVC034 22/21 A2981 RMK AO2 RAE36 P0002 T02170206
KLOM - Philly Wings F, Pennsylvania, USA
Distance from station: SW 79mi, 128km
Updated: 07/29/2021 7:35pm
Overcast
Overcast
 Wind from WSW
Wind: WSW 6 mph , 9 km/h
Temperature: 77°F , 25°C
Dew Point: 73°F , 23°C
Humidity: 89%
Barometer: 29.77 inHg , 1008.1 hPa
Clouds: Overcast
Visibility: 10 miles , 16 km
Cloud details: Partly cloudy 3000 ft
Mostly cloudy 6500 ft
Overcast 8000 ft
2021/07/29 23:35 KLOM 292335Z AUTO 24005KT 10SM SCT030 BKN065 OVC080 25/23 A2977 RMK AO2 T02530234
 
KMMK - Meriden, Connecticut, USA
Distance from station: NE 80mi, 128km
Updated: 07/29/2021 6:53pm
Overcast
Overcast
 Wind from S
Wind: S 10 mph , 17 km/h
Temperature: 72°F , 22°C
Dew Point: 66°F , 19°C
Humidity: 83%
Barometer: 29.79 inHg , 1008.8 hPa
Clouds: Overcast
Visibility: 10 miles , 16 km
Cloud details: Mostly cloudy 1300 ft
Overcast 2300 ft
2021/07/29 22:53 KMMK 292253Z AUTO 18009KT 10SM BKN013 OVC023 22/19 A2979 RMK AO2 RAB38E48 SLP088 P0000 T02170194
KPTW - Pottstown, Pennsylvania, USA
Distance from station: WSW 88mi, 141km
Updated: 07/29/2021 7:13pm
Light rain, Mist, Mostly cloudy
Light rain, Mist, Mostly cloudy
 Wind from WSW
Wind: WSW 6 mph , 9 km/h
Temperature: 75°F , 24°C
Dew Point: 73°F , 23°C
Humidity: 94%
Barometer: 29.79 inHg , 1008.8 hPa
Summary: Light rain, Mist
Clouds: Mostly cloudy
Visibility: 6 miles , 10 km
Cloud details: Few Clouds 1100 ft
Partly cloudy 1800 ft
Mostly cloudy 2600 ft
2021/07/29 23:13 KPTW 292313Z AUTO 24005KT 6SM -RA BR FEW011 SCT018 BKN026 24/23 A2979 RMK AO2 LTG DSNT E AND SE RAB00 P0000 T02440228
 
KSNC - Chester, Connecticut, USA
Distance from station: ENE 90mi, 146km
Updated: 07/29/2021 7:35pm
Overcast
Overcast
 Wind from S
Wind: S 12 mph , 19 km/h, Gust: 20 mph , 31 km/h
Temperature: 70°F , 21°C
Dew Point: 68°F , 20°C
Humidity: 94%
Barometer: 29.80 inHg , 1009.1 hPa
Clouds: Overcast
Visibility: 9 miles , 14 km
Cloud details: Partly cloudy 1300 ft
Mostly cloudy 1900 ft
Overcast 3400 ft
2021/07/29 23:35 KSNC 292335Z AUTO 18010G17KT 9SM SCT013 BKN019 OVC034 21/20 A2980 RMK AO2
KPHL - Philadelphia, Pennsylvania, USA
Distance from station: SW 91mi, 146km
Updated: 07/29/2021 6:54pm
Mostly cloudy
Mostly cloudy
 Wind from SSW
Wind: SSW 16 mph , 26 km/h
Temperature: 81°F , 27°C
Heat Index: 86°F , 30°C
Dew Point: 73°F , 23°C
Humidity: 79%
Barometer: 29.75 inHg , 1007.5 hPa
Clouds: Mostly cloudy
Visibility: 10 miles , 16 km
Cloud details: Partly cloudy 2900 ft
Mostly cloudy 9500 ft
Mostly cloudy 25000 ft
2021/07/29 22:54 KPHL 292254Z 21014KT 10SM SCT029 BKN095 BKN250 27/23 A2975 RMK AO2 LTG DSNT N AND NE RAE51 SLP075 CB DSNT NE MOV E P0000 T02670233
 
KAVP - Avoca/Wilkes B., Pennsylvania, USA
Distance from station: WNW 91mi, 147km
Updated: 07/29/2021 7:19pm
Overcast
Overcast
 Wind from SW
Wind: SW 7 mph , 11 km/h
Temperature: 73°F , 23°C
Dew Point: 66°F , 19°C
Humidity: 78%
Barometer: 29.79 inHg , 1008.8 hPa
Clouds: Overcast
Visibility: 9 miles , 14 km
Cloud details: Few Clouds 1700 ft
Mostly cloudy 5000 ft
Overcast 6500 ft
2021/07/29 23:19 KAVP 292319Z 22006KT 9SM FEW017 BKN050 OVC065 23/19 A2979 RMK AO2 T02330194
KHFD - Hartford/Brainar, Connecticut, USA
Distance from station: NE 96mi, 155km
Updated: 07/29/2021 7:42pm
Overcast
Overcast
 Wind from S
Wind: S 15 mph , 24 km/h, Gust: 21 mph , 33 km/h
Temperature: 73°F , 23°C
Dew Point: 66°F , 19°C
Humidity: 78%
Barometer: 29.75 inHg , 1007.5 hPa
Clouds: Overcast
Visibility: 10 miles , 16 km
Cloud details: Mostly cloudy 1600 ft
Overcast 2600 ft
2021/07/29 23:42 KHFD 292342Z 18013G18KT 10SM BKN016 OVC026 23/19 A2975 RMK AO2 T02280189
 
KHTO - East Hampton, New York, USA
Distance from station: E 96mi, 155km
Updated: 07/29/2021 7:35pm
Rain, Overcast
Rain, Overcast
 Wind from S
Wind: S 9 mph , 15 km/h, Gust: 20 mph , 31 km/h
Temperature: 70°F , 21°C
Dew Point: 68°F , 20°C
Humidity: 94%
Barometer: 29.81 inHg , 1009.5 hPa
Summary: Rain
Clouds: Overcast
Visibility: 10 miles , 16 km
Cloud details: Partly cloudy 2300 ft
Mostly cloudy 6000 ft
Overcast 8000 ft
2021/07/29 23:35 KHTO 292335Z AUTO 19008G17KT 10SM RA SCT023 BKN060 OVC080 21/20 A2981 RMK AO2 P0004 T02070200
KACY - Atlantic City, New Jersey, USA
Distance from station: SSW 99mi, 160km
Updated: 07/29/2021 6:54pm
Overcast
Overcast
 Wind from S
Wind: S 16 mph , 26 km/h, Gust: 29 mph , 46 km/h
Temperature: 75°F , 24°C
Dew Point: 75°F , 24°C
Humidity: 100%
Barometer: 29.79 inHg , 1008.8 hPa
Clouds: Overcast
Visibility: 9 miles , 14 km
Cloud details: Overcast 600 ft
2021/07/29 22:54 KACY 292254Z 19014G25KT 9SM OVC006 24/24 A2979 RMK AO2 RAB00E18B35E47 CIG 005V009 SLP088 P0000 T02440239